sensor_id;sensor_type;location;lat;lon;timestamp;P1;durP1;ratioP1;P2;durP2;ratioP2
12972;SDS011;6551;51.056;9.466;2023-02-12T00:00:46;78.60;;;30.60;;
12972;SDS011;6551;51.056;9.466;2023-02-12T00:03:12;70.47;;;31.93;;
12972;SDS011;6551;51.056;9.466;2023-02-12T00:05:38;80.13;;;32.67;;
12972;SDS011;6551;51.056;9.466;2023-02-12T00:08:06;76.90;;;31.30;;
12972;SDS011;6551;51.056;9.466;2023-02-12T00:10:39;80.23;;;31.13;;
12972;SDS011;6551;51.056;9.466;2023-02-12T00:13:06;74.87;;;31.17;;
12972;SDS011;6551;51.056;9.466;2023-02-12T00:15:38;70.00;;;30.50;;
12972;SDS011;6551;51.056;9.466;2023-02-12T00:18:06;76.13;;;31.70;;
12972;SDS011;6551;51.056;9.466;2023-02-12T00:20:33;66.63;;;30.57;;
12972;SDS011;6551;51.056;9.466;2023-02-12T00:23:00;81.60;;;31.53;;
12972;SDS011;6551;51.056;9.466;2023-02-12T00:25:25;70.97;;;31.97;;
12972;SDS011;6551;51.056;9.466;2023-02-12T00:27:51;74.20;;;32.07;;
12972;SDS011;6551;51.056;9.466;2023-02-12T00:30:17;77.73;;;34.03;;
12972;SDS011;6551;51.056;9.466;2023-02-12T00:32:44;71.53;;;30.30;;
12972;SDS011;6551;51.056;9.466;2023-02-12T00:35:11;73.53;;;31.60;;
12972;SDS011;6551;51.056;9.466;2023-02-12T00:37:38;67.17;;;31.90;;
12972;SDS011;6551;51.056;9.466;2023-02-12T00:40:04;70.97;;;30.83;;
12972;SDS011;6551;51.056;9.466;2023-02-12T00:42:31;66.27;;;29.83;;
12972;SDS011;6551;51.056;9.466;2023-02-12T00:44:57;63.43;;;30.03;;
12972;SDS011;6551;51.056;9.466;2023-02-12T00:47:22;68.67;;;31.60;;
12972;SDS011;6551;51.056;9.466;2023-02-12T00:49:48;61.53;;;28.53;;
12972;SDS011;6551;51.056;9.466;2023-02-12T00:52:13;67.63;;;30.07;;
12972;SDS011;6551;51.056;9.466;2023-02-12T00:54:40;62.93;;;29.73;;
12972;SDS011;6551;51.056;9.466;2023-02-12T00:57:06;60.17;;;28.87;;
12972;SDS011;6551;51.056;9.466;2023-02-12T00:59:33;60.10;;;29.37;;
12972;SDS011;6551;51.056;9.466;2023-02-12T01:02:01;59.80;;;28.87;;
12972;SDS011;6551;51.056;9.466;2023-02-12T01:04:27;62.73;;;31.60;;
12972;SDS011;6551;51.056;9.466;2023-02-12T01:06:55;65.43;;;32.20;;
12972;SDS011;6551;51.056;9.466;2023-02-12T01:09:21;55.37;;;27.07;;
12972;SDS011;6551;51.056;9.466;2023-02-12T01:11:47;57.53;;;27.67;;
12972;SDS011;6551;51.056;9.466;2023-02-12T01:14:12;58.00;;;27.83;;
12972;SDS011;6551;51.056;9.466;2023-02-12T01:16:39;59.20;;;27.73;;
12972;SDS011;6551;51.056;9.466;2023-02-12T01:19:05;54.13;;;27.33;;
12972;SDS011;6551;51.056;9.466;2023-02-12T01:21:33;54.10;;;28.23;;
12972;SDS011;6551;51.056;9.466;2023-02-12T01:23:59;54.73;;;26.67;;
12972;SDS011;6551;51.056;9.466;2023-02-12T01:26:28;56.33;;;27.73;;
12972;SDS011;6551;51.056;9.466;2023-02-12T01:29:00;53.43;;;26.50;;
12972;SDS011;6551;51.056;9.466;2023-02-12T01:31:31;53.10;;;27.30;;
12972;SDS011;6551;51.056;9.466;2023-02-12T01:34:03;52.63;;;25.57;;
12972;SDS011;6551;51.056;9.466;2023-02-12T01:36:31;54.80;;;25.27;;
12972;SDS011;6551;51.056;9.466;2023-02-12T01:38:58;54.57;;;26.37;;
12972;SDS011;6551;51.056;9.466;2023-02-12T01:41:28;50.27;;;25.50;;
12972;SDS011;6551;51.056;9.466;2023-02-12T01:44:07;56.83;;;27.00;;
12972;SDS011;6551;51.056;9.466;2023-02-12T01:46:42;52.10;;;26.43;;
12972;SDS011;6551;51.056;9.466;2023-02-12T01:49:17;53.77;;;26.50;;
12972;SDS011;6551;51.056;9.466;2023-02-12T01:55:12;46.07;;;25.73;;
12972;SDS011;6551;51.056;9.466;2023-02-12T01:57:40;57.43;;;26.73;;
12972;SDS011;6551;51.056;9.466;2023-02-12T02:00:11;53.03;;;26.37;;
12972;SDS011;6551;51.056;9.466;2023-02-12T02:02:44;53.03;;;25.40;;
12972;SDS011;6551;51.056;9.466;2023-02-12T02:05:15;48.23;;;25.67;;
12972;SDS011;6551;51.056;9.466;2023-02-12T02:07:58;55.47;;;26.40;;
12972;SDS011;6551;51.056;9.466;2023-02-12T02:10:24;53.90;;;25.77;;
12972;SDS011;6551;51.056;9.466;2023-02-12T02:12:50;52.17;;;26.30;;
12972;SDS011;6551;51.056;9.466;2023-02-12T02:15:36;55.30;;;25.80;;
12972;SDS011;6551;51.056;9.466;2023-02-12T02:18:10;51.23;;;25.80;;
12972;SDS011;6551;51.056;9.466;2023-02-12T02:20:58;55.77;;;26.50;;
12972;SDS011;6551;51.056;9.466;2023-02-12T02:27:11;52.43;;;26.17;;
12972;SDS011;6551;51.056;9.466;2023-02-12T02:33:13;50.47;;;26.43;;
12972;SDS011;6551;51.056;9.466;2023-02-12T02:36:36;49.07;;;25.07;;
12972;SDS011;6551;51.056;9.466;2023-02-12T02:42:10;50.97;;;25.77;;
12972;SDS011;6551;51.056;9.466;2023-02-12T02:47:46;55.53;;;25.53;;
12972;SDS011;6551;51.056;9.466;2023-02-12T02:50:31;46.50;;;25.80;;
12972;SDS011;6551;51.056;9.466;2023-02-12T02:53:05;46.63;;;25.13;;
12972;SDS011;6551;51.056;9.466;2023-02-12T02:55:40;48.97;;;25.60;;
12972;SDS011;6551;51.056;9.466;2023-02-12T02:58:13;47.10;;;25.47;;
12972;SDS011;6551;51.056;9.466;2023-02-12T03:00:54;47.03;;;24.90;;
12972;SDS011;6551;51.056;9.466;2023-02-12T03:03:50;47.30;;;25.60;;
12972;SDS011;6551;51.056;9.466;2023-02-12T03:06:52;50.63;;;24.97;;
12972;SDS011;6551;51.056;9.466;2023-02-12T03:09:30;48.67;;;26.37;;
12972;SDS011;6551;51.056;9.466;2023-02-12T03:12:08;48.03;;;26.20;;
12972;SDS011;6551;51.056;9.466;2023-02-12T03:14:52;48.90;;;25.80;;
12972;SDS011;6551;51.056;9.466;2023-02-12T03:17:30;55.53;;;25.77;;
12972;SDS011;6551;51.056;9.466;2023-02-12T03:20:23;54.80;;;25.93;;
12972;SDS011;6551;51.056;9.466;2023-02-12T03:23:05;50.47;;;25.53;;
12972;SDS011;6551;51.056;9.466;2023-02-12T03:28:19;52.47;;;26.07;;
12972;SDS011;6551;51.056;9.466;2023-02-12T03:33:52;53.20;;;25.57;;
12972;SDS011;6551;51.056;9.466;2023-02-12T03:37:07;52.97;;;26.40;;
12972;SDS011;6551;51.056;9.466;2023-02-12T03:39:54;49.43;;;25.37;;
12972;SDS011;6551;51.056;9.466;2023-02-12T03:43:02;49.07;;;25.30;;
12972;SDS011;6551;51.056;9.466;2023-02-12T03:46:01;54.63;;;26.93;;
12972;SDS011;6551;51.056;9.466;2023-02-12T03:51:26;64.00;;;29.53;;
12972;SDS011;6551;51.056;9.466;2023-02-12T03:54:02;62.83;;;28.73;;
12972;SDS011;6551;51.056;9.466;2023-02-12T03:59:25;61.97;;;28.77;;
12972;SDS011;6551;51.056;9.466;2023-02-12T04:01:53;61.23;;;28.13;;
12972;SDS011;6551;51.056;9.466;2023-02-12T04:04:22;62.17;;;29.80;;
12972;SDS011;6551;51.056;9.466;2023-02-12T04:06:49;55.83;;;28.13;;
12972;SDS011;6551;51.056;9.466;2023-02-12T04:09:16;57.40;;;27.90;;
12972;SDS011;6551;51.056;9.466;2023-02-12T04:26:32;61.50;;;27.70;;
12972;SDS011;6551;51.056;9.466;2023-02-12T04:35:34;60.93;;;29.83;;
12972;SDS011;6551;51.056;9.466;2023-02-12T04:38:23;65.03;;;28.90;;
12972;SDS011;6551;51.056;9.466;2023-02-12T04:40:56;62.17;;;27.57;;
12972;SDS011;6551;51.056;9.466;2023-02-12T04:43:32;65.47;;;30.83;;
12972;SDS011;6551;51.056;9.466;2023-02-12T04:46:02;65.10;;;28.40;;
12972;SDS011;6551;51.056;9.466;2023-02-12T04:48:30;69.97;;;30.03;;
12972;SDS011;6551;51.056;9.466;2023-02-12T04:50:59;74.07;;;29.10;;
12972;SDS011;6551;51.056;9.466;2023-02-12T04:53:26;68.07;;;29.70;;
12972;SDS011;6551;51.056;9.466;2023-02-12T04:55:52;72.90;;;29.53;;
12972;SDS011;6551;51.056;9.466;2023-02-12T04:58:20;72.77;;;29.73;;
12972;SDS011;6551;51.056;9.466;2023-02-12T05:00:46;89.83;;;29.63;;
12972;SDS011;6551;51.056;9.466;2023-02-12T05:03:11;100.87;;;30.53;;
12972;SDS011;6551;51.056;9.466;2023-02-12T05:05:38;100.37;;;29.13;;
12972;SDS011;6551;51.056;9.466;2023-02-12T05:08:06;113.63;;;29.97;;
12972;SDS011;6551;51.056;9.466;2023-02-12T05:10:32;109.63;;;30.40;;
12972;SDS011;6551;51.056;9.466;2023-02-12T05:12:58;93.07;;;28.73;;
12972;SDS011;6551;51.056;9.466;2023-02-12T05:15:25;82.50;;;27.90;;
12972;SDS011;6551;51.056;9.466;2023-02-12T05:17:51;73.17;;;28.60;;
12972;SDS011;6551;51.056;9.466;2023-02-12T05:20:18;105.00;;;27.70;;
12972;SDS011;6551;51.056;9.466;2023-02-12T05:22:44;125.93;;;30.30;;
12972;SDS011;6551;51.056;9.466;2023-02-12T05:25:09;109.60;;;30.17;;
12972;SDS011;6551;51.056;9.466;2023-02-12T05:27:37;78.43;;;29.60;;
12972;SDS011;6551;51.056;9.466;2023-02-12T05:30:02;159.70;;;32.10;;
12972;SDS011;6551;51.056;9.466;2023-02-12T05:32:31;246.77;;;42.67;;
12972;SDS011;6551;51.056;9.466;2023-02-12T05:34:57;266.70;;;49.80;;
12972;SDS011;6551;51.056;9.466;2023-02-12T05:37:27;252.20;;;37.97;;
12972;SDS011;6551;51.056;9.466;2023-02-12T05:39:54;262.03;;;33.80;;
12972;SDS011;6551;51.056;9.466;2023-02-12T05:42:19;206.23;;;32.03;;
12972;SDS011;6551;51.056;9.466;2023-02-12T05:44:45;301.27;;;35.67;;
12972;SDS011;6551;51.056;9.466;2023-02-12T05:47:11;341.53;;;39.27;;
12972;SDS011;6551;51.056;9.466;2023-02-12T05:49:36;302.37;;;40.10;;
12972;SDS011;6551;51.056;9.466;2023-02-12T05:52:03;244.70;;;31.33;;
12972;SDS011;6551;51.056;9.466;2023-02-12T05:54:30;226.03;;;40.43;;
12972;SDS011;6551;51.056;9.466;2023-02-12T05:56:55;257.23;;;39.77;;
12972;SDS011;6551;51.056;9.466;2023-02-12T05:59:22;230.80;;;32.80;;
12972;SDS011;6551;51.056;9.466;2023-02-12T06:01:49;234.47;;;37.17;;
12972;SDS011;6551;51.056;9.466;2023-02-12T06:04:19;205.33;;;33.60;;
12972;SDS011;6551;51.056;9.466;2023-02-12T06:06:49;182.40;;;29.33;;
12972;SDS011;6551;51.056;9.466;2023-02-12T06:09:17;185.73;;;28.30;;
12972;SDS011;6551;51.056;9.466;2023-02-12T06:11:43;260.23;;;29.77;;
12972;SDS011;6551;51.056;9.466;2023-02-12T06:14:10;314.77;;;30.30;;
12972;SDS011;6551;51.056;9.466;2023-02-12T06:16:42;229.73;;;29.93;;
12972;SDS011;6551;51.056;9.466;2023-02-12T06:19:13;241.97;;;28.90;;
12972;SDS011;6551;51.056;9.466;2023-02-12T06:21:40;242.77;;;31.33;;
12972;SDS011;6551;51.056;9.466;2023-02-12T06:24:06;135.60;;;30.30;;
12972;SDS011;6551;51.056;9.466;2023-02-12T06:26:32;166.40;;;28.03;;
12972;SDS011;6551;51.056;9.466;2023-02-12T06:28:57;161.00;;;26.90;;
12972;SDS011;6551;51.056;9.466;2023-02-12T06:31:24;156.87;;;29.23;;
12972;SDS011;6551;51.056;9.466;2023-02-12T06:33:57;119.20;;;27.13;;
12972;SDS011;6551;51.056;9.466;2023-02-12T06:36:33;130.47;;;29.23;;
12972;SDS011;6551;51.056;9.466;2023-02-12T06:39:04;115.37;;;26.87;;
12972;SDS011;6551;51.056;9.466;2023-02-12T06:41:32;153.43;;;29.83;;
12972;SDS011;6551;51.056;9.466;2023-02-12T06:43:58;200.77;;;28.77;;
12972;SDS011;6551;51.056;9.466;2023-02-12T06:46:25;155.43;;;31.43;;
12972;SDS011;6551;51.056;9.466;2023-02-12T06:48:51;143.30;;;26.30;;
12972;SDS011;6551;51.056;9.466;2023-02-12T06:51:22;162.83;;;28.30;;
12972;SDS011;6551;51.056;9.466;2023-02-12T06:53:50;176.67;;;26.50;;
12972;SDS011;6551;51.056;9.466;2023-02-12T06:56:17;126.47;;;28.00;;
12972;SDS011;6551;51.056;9.466;2023-02-12T06:58:45;136.33;;;27.67;;
12972;SDS011;6551;51.056;9.466;2023-02-12T07:01:20;146.10;;;26.53;;
12972;SDS011;6551;51.056;9.466;2023-02-12T07:03:55;139.53;;;25.83;;
12972;SDS011;6551;51.056;9.466;2023-02-12T07:06:24;85.70;;;24.37;;
12972;SDS011;6551;51.056;9.466;2023-02-12T07:08:51;88.10;;;24.80;;
12972;SDS011;6551;51.056;9.466;2023-02-12T07:11:21;115.63;;;26.20;;
12972;SDS011;6551;51.056;9.466;2023-02-12T07:13:52;65.53;;;22.40;;
12972;SDS011;6551;51.056;9.466;2023-02-12T07:16:18;60.20;;;21.33;;
12972;SDS011;6551;51.056;9.466;2023-02-12T07:18:44;52.63;;;21.13;;
12972;SDS011;6551;51.056;9.466;2023-02-12T07:21:13;56.40;;;22.27;;
12972;SDS011;6551;51.056;9.466;2023-02-12T07:23:45;85.37;;;24.03;;
12972;SDS011;6551;51.056;9.466;2023-02-12T07:26:14;140.13;;;27.87;;
12972;SDS011;6551;51.056;9.466;2023-02-12T07:28:41;198.07;;;26.33;;
12972;SDS011;6551;51.056;9.466;2023-02-12T07:31:09;233.23;;;26.00;;
12972;SDS011;6551;51.056;9.466;2023-02-12T07:33:38;209.20;;;24.80;;
12972;SDS011;6551;51.056;9.466;2023-02-12T07:36:05;187.77;;;31.80;;
12972;SDS011;6551;51.056;9.466;2023-02-12T07:38:52;166.13;;;32.27;;
12972;SDS011;6551;51.056;9.466;2023-02-12T07:41:24;253.80;;;33.10;;
12972;SDS011;6551;51.056;9.466;2023-02-12T07:43:54;157.10;;;33.10;;
12972;SDS011;6551;51.056;9.466;2023-02-12T07:46:23;231.53;;;30.97;;
12972;SDS011;6551;51.056;9.466;2023-02-12T07:48:57;129.83;;;27.97;;
12972;SDS011;6551;51.056;9.466;2023-02-12T07:51:32;162.77;;;28.33;;
12972;SDS011;6551;51.056;9.466;2023-02-12T07:53:59;197.37;;;29.17;;
12972;SDS011;6551;51.056;9.466;2023-02-12T07:56:27;133.63;;;24.60;;
12972;SDS011;6551;51.056;9.466;2023-02-12T07:58:58;172.67;;;26.20;;
12972;SDS011;6551;51.056;9.466;2023-02-12T08:01:38;112.27;;;23.63;;
12972;SDS011;6551;51.056;9.466;2023-02-12T08:04:16;194.50;;;26.03;;
12972;SDS011;6551;51.056;9.466;2023-02-12T08:06:45;196.30;;;27.07;;
12972;SDS011;6551;51.056;9.466;2023-02-12T08:09:15;189.97;;;27.23;;
12972;SDS011;6551;51.056;9.466;2023-02-12T08:11:47;212.43;;;28.10;;
12972;SDS011;6551;51.056;9.466;2023-02-12T08:14:14;152.00;;;25.83;;
12972;SDS011;6551;51.056;9.466;2023-02-12T08:16:44;222.30;;;29.90;;
12972;SDS011;6551;51.056;9.466;2023-02-12T08:19:12;268.53;;;30.30;;
12972;SDS011;6551;51.056;9.466;2023-02-12T08:21:39;220.30;;;28.23;;
12972;SDS011;6551;51.056;9.466;2023-02-12T08:24:05;305.57;;;32.87;;
12972;SDS011;6551;51.056;9.466;2023-02-12T08:26:33;259.57;;;30.70;;
12972;SDS011;6551;51.056;9.466;2023-02-12T08:29:06;179.67;;;27.30;;
12972;SDS011;6551;51.056;9.466;2023-02-12T08:31:37;120.37;;;33.97;;
12972;SDS011;6551;51.056;9.466;2023-02-12T08:34:06;225.87;;;32.60;;
12972;SDS011;6551;51.056;9.466;2023-02-12T08:36:47;179.17;;;29.47;;
12972;SDS011;6551;51.056;9.466;2023-02-12T08:39:14;166.77;;;28.67;;
12972;SDS011;6551;51.056;9.466;2023-02-12T08:41:41;196.10;;;28.57;;
12972;SDS011;6551;51.056;9.466;2023-02-12T08:44:08;155.40;;;26.77;;
12972;SDS011;6551;51.056;9.466;2023-02-12T08:46:36;137.40;;;26.17;;
12972;SDS011;6551;51.056;9.466;2023-02-12T08:49:08;141.13;;;28.23;;
12972;SDS011;6551;51.056;9.466;2023-02-12T08:51:45;75.17;;;26.77;;
12972;SDS011;6551;51.056;9.466;2023-02-12T08:54:20;101.83;;;24.93;;
12972;SDS011;6551;51.056;9.466;2023-02-12T08:56:49;93.97;;;24.43;;
12972;SDS011;6551;51.056;9.466;2023-02-12T08:59:19;56.93;;;21.50;;
12972;SDS011;6551;51.056;9.466;2023-02-12T09:01:45;39.57;;;19.27;;
12972;SDS011;6551;51.056;9.466;2023-02-12T09:04:16;34.60;;;17.00;;
12972;SDS011;6551;51.056;9.466;2023-02-12T09:06:49;35.70;;;17.97;;
12972;SDS011;6551;51.056;9.466;2023-02-12T09:09:16;36.57;;;16.50;;
12972;SDS011;6551;51.056;9.466;2023-02-12T09:11:43;31.33;;;17.13;;
12972;SDS011;6551;51.056;9.466;2023-02-12T09:14:10;41.17;;;18.47;;
12972;SDS011;6551;51.056;9.466;2023-02-12T09:16:39;59.10;;;19.77;;
12972;SDS011;6551;51.056;9.466;2023-02-12T09:19:08;71.70;;;22.47;;
12972;SDS011;6551;51.056;9.466;2023-02-12T09:21:38;64.65;;;25.40;;
12972;SDS011;6551;51.056;9.466;2023-02-12T09:24:03;96.93;;;24.53;;
12972;SDS011;6551;51.056;9.466;2023-02-12T09:26:31;45.23;;;20.30;;
12972;SDS011;6551;51.056;9.466;2023-02-12T09:29:00;50.97;;;20.17;;
12972;SDS011;6551;51.056;9.466;2023-02-12T09:31:28;44.70;;;20.53;;
12972;SDS011;6551;51.056;9.466;2023-02-12T09:34:00;76.27;;;24.83;;
12972;SDS011;6551;51.056;9.466;2023-02-12T09:36:30;130.63;;;26.77;;
12972;SDS011;6551;51.056;9.466;2023-02-12T09:38:58;98.17;;;20.87;;
12972;SDS011;6551;51.056;9.466;2023-02-12T09:41:32;100.23;;;24.73;;
12972;SDS011;6551;51.056;9.466;2023-02-12T09:47:47;44.80;;;21.53;;
12972;SDS011;6551;51.056;9.466;2023-02-12T09:50:50;62.60;;;22.93;;
12972;SDS011;6551;51.056;9.466;2023-02-12T09:53:21;54.47;;;20.53;;
12972;SDS011;6551;51.056;9.466;2023-02-12T09:55:52;55.73;;;23.93;;
12972;SDS011;6551;51.056;9.466;2023-02-12T10:01:13;37.63;;;18.17;;
12972;SDS011;6551;51.056;9.466;2023-02-12T10:03:42;60.17;;;21.87;;
12972;SDS011;6551;51.056;9.466;2023-02-12T10:06:13;66.13;;;23.73;;
12972;SDS011;6551;51.056;9.466;2023-02-12T10:21:17;59.40;;;26.43;;
12972;SDS011;6551;51.056;9.466;2023-02-12T10:27:46;45.00;;;21.60;;
12972;SDS011;6551;51.056;9.466;2023-02-12T10:30:16;36.10;;;19.93;;
12972;SDS011;6551;51.056;9.466;2023-02-12T10:33:02;34.90;;;19.83;;
12972;SDS011;6551;51.056;9.466;2023-02-12T10:35:38;31.60;;;17.27;;
12972;SDS011;6551;51.056;9.466;2023-02-12T10:38:15;31.43;;;16.70;;
12972;SDS011;6551;51.056;9.466;2023-02-12T10:40:51;38.00;;;20.10;;
12972;SDS011;6551;51.056;9.466;2023-02-12T10:43:19;37.43;;;19.00;;
12972;SDS011;6551;51.056;9.466;2023-02-12T10:45:45;33.80;;;18.97;;
12972;SDS011;6551;51.056;9.466;2023-02-12T10:52:02;26.03;;;13.90;;
12972;SDS011;6551;51.056;9.466;2023-02-12T10:54:44;24.50;;;14.60;;
12972;SDS011;6551;51.056;9.466;2023-02-12T10:57:17;15.30;;;8.17;;
12972;SDS011;6551;51.056;9.466;2023-02-12T11:00:25;16.07;;;9.60;;
12972;SDS011;6551;51.056;9.466;2023-02-12T11:05:40;13.47;;;7.80;;
12972;SDS011;6551;51.056;9.466;2023-02-12T11:11:05;7.00;;;4.67;;
12972;SDS011;6551;51.056;9.466;2023-02-12T11:13:36;5.67;;;3.87;;
12972;SDS011;6551;51.056;9.466;2023-02-12T11:16:08;5.80;;;4.13;;
12972;SDS011;6551;51.056;9.466;2023-02-12T11:18:36;5.23;;;2.93;;
12972;SDS011;6551;51.056;9.466;2023-02-12T11:21:06;5.87;;;3.83;;
12972;SDS011;6551;51.056;9.466;2023-02-12T11:23:40;6.20;;;4.37;;
12972;SDS011;6551;51.056;9.466;2023-02-12T11:31:59;4.43;;;2.90;;
12972;SDS011;6551;51.056;9.466;2023-02-12T11:34:28;2.90;;;2.20;;
12972;SDS011;6551;51.056;9.466;2023-02-12T11:36:54;14.57;;;5.83;;
12972;SDS011;6551;51.056;9.466;2023-02-12T11:39:23;9.17;;;5.80;;
12972;SDS011;6551;51.056;9.466;2023-02-12T11:41:58;5.67;;;3.40;;
12972;SDS011;6551;51.056;9.466;2023-02-12T11:44:42;4.87;;;3.20;;
12972;SDS011;6551;51.056;9.466;2023-02-12T11:47:29;12.77;;;8.07;;
12972;SDS011;6551;51.056;9.466;2023-02-12T11:50:17;9.87;;;7.03;;
12972;SDS011;6551;51.056;9.466;2023-02-12T11:52:57;15.60;;;9.47;;
12972;SDS011;6551;51.056;9.466;2023-02-12T11:55:35;8.67;;;5.23;;
12972;SDS011;6551;51.056;9.466;2023-02-12T11:58:15;6.53;;;4.30;;
12972;SDS011;6551;51.056;9.466;2023-02-12T12:03:39;7.97;;;5.53;;
12972;SDS011;6551;51.056;9.466;2023-02-12T12:06:15;3.87;;;2.60;;
12972;SDS011;6551;51.056;9.466;2023-02-12T12:14:48;4.07;;;2.60;;
12972;SDS011;6551;51.056;9.466;2023-02-12T12:21:41;3.53;;;2.97;;
12972;SDS011;6551;51.056;9.466;2023-02-12T12:24:51;4.50;;;3.00;;
12972;SDS011;6551;51.056;9.466;2023-02-12T12:28:18;4.23;;;3.00;;
12972;SDS011;6551;51.056;9.466;2023-02-12T12:31:21;3.83;;;2.80;;
12972;SDS011;6551;51.056;9.466;2023-02-12T12:48:34;6.70;;;3.73;;
12972;SDS011;6551;51.056;9.466;2023-02-12T12:51:27;5.90;;;4.40;;
12972;SDS011;6551;51.056;9.466;2023-02-12T12:54:30;5.63;;;4.13;;
12972;SDS011;6551;51.056;9.466;2023-02-12T12:57:37;10.40;;;6.70;;
12972;SDS011;6551;51.056;9.466;2023-02-12T13:27:12;6.50;;;5.33;;
12972;SDS011;6551;51.056;9.466;2023-02-12T13:29:50;5.50;;;4.50;;
12972;SDS011;6551;51.056;9.466;2023-02-12T13:32:37;7.33;;;4.77;;
12972;SDS011;6551;51.056;9.466;2023-02-12T13:35:28;6.23;;;5.23;;
12972;SDS011;6551;51.056;9.466;2023-02-12T13:37:56;6.40;;;4.00;;
12972;SDS011;6551;51.056;9.466;2023-02-12T13:40:28;6.17;;;4.33;;
12972;SDS011;6551;51.056;9.466;2023-02-12T13:42:58;8.67;;;7.07;;
12972;SDS011;6551;51.056;9.466;2023-02-12T13:46:07;6.83;;;4.27;;
12972;SDS011;6551;51.056;9.466;2023-02-12T13:57:28;6.10;;;4.00;;
12972;SDS011;6551;51.056;9.466;2023-02-12T13:59:54;6.80;;;4.20;;
12972;SDS011;6551;51.056;9.466;2023-02-12T14:07:56;40.20;;;19.83;;
12972;SDS011;6551;51.056;9.466;2023-02-12T14:13:14;79.57;;;32.93;;
12972;SDS011;6551;51.056;9.466;2023-02-12T14:15:52;10.53;;;6.83;;
12972;SDS011;6551;51.056;9.466;2023-02-12T14:18:25;13.90;;;9.67;;
12972;SDS011;6551;51.056;9.466;2023-02-12T14:23:39;11.50;;;7.77;;
12972;SDS011;6551;51.056;9.466;2023-02-12T14:26:10;8.07;;;6.47;;
12972;SDS011;6551;51.056;9.466;2023-02-12T14:31:40;7.63;;;5.20;;
12972;SDS011;6551;51.056;9.466;2023-02-12T14:36:38;4.70;;;3.57;;
12972;SDS011;6551;51.056;9.466;2023-02-12T14:41:49;4.53;;;3.23;;
12972;SDS011;6551;51.056;9.466;2023-02-12T14:49:43;6.10;;;4.57;;
12972;SDS011;6551;51.056;9.466;2023-02-12T14:52:13;5.73;;;4.33;;
12972;SDS011;6551;51.056;9.466;2023-02-12T14:54:59;6.40;;;4.20;;
12972;SDS011;6551;51.056;9.466;2023-02-12T14:57:40;6.23;;;4.67;;
12972;SDS011;6551;51.056;9.466;2023-02-12T15:02:43;6.27;;;4.30;;
12972;SDS011;6551;51.056;9.466;2023-02-12T15:05:27;5.67;;;4.53;;
12972;SDS011;6551;51.056;9.466;2023-02-12T15:08:30;7.53;;;5.30;;
12972;SDS011;6551;51.056;9.466;2023-02-12T15:14:14;9.20;;;4.97;;
12972;SDS011;6551;51.056;9.466;2023-02-12T15:20:00;16.90;;;9.17;;
12972;SDS011;6551;51.056;9.466;2023-02-12T15:22:48;17.80;;;11.17;;
12972;SDS011;6551;51.056;9.466;2023-02-12T15:25:24;11.53;;;6.83;;
12972;SDS011;6551;51.056;9.466;2023-02-12T15:27:57;10.67;;;7.47;;
12972;SDS011;6551;51.056;9.466;2023-02-12T15:30:40;13.77;;;9.10;;
12972;SDS011;6551;51.056;9.466;2023-02-12T15:33:07;14.23;;;12.30;;
12972;SDS011;6551;51.056;9.466;2023-02-12T15:35:35;17.67;;;14.70;;
12972;SDS011;6551;51.056;9.466;2023-02-12T15:38:17;14.23;;;8.57;;
12972;SDS011;6551;51.056;9.466;2023-02-12T15:40:53;11.40;;;7.80;;
12972;SDS011;6551;51.056;9.466;2023-02-12T15:43:24;10.50;;;6.90;;
12972;SDS011;6551;51.056;9.466;2023-02-12T15:45:54;11.07;;;8.13;;
12972;SDS011;6551;51.056;9.466;2023-02-12T15:48:20;13.73;;;9.33;;
12972;SDS011;6551;51.056;9.466;2023-02-12T15:51:01;9.47;;;6.40;;
12972;SDS011;6551;51.056;9.466;2023-02-12T15:53:37;8.80;;;6.10;;
12972;SDS011;6551;51.056;9.466;2023-02-12T15:56:04;10.73;;;7.87;;
12972;SDS011;6551;51.056;9.466;2023-02-12T15:58:51;10.80;;;7.57;;
12972;SDS011;6551;51.056;9.466;2023-02-12T16:01:20;11.47;;;7.63;;
12972;SDS011;6551;51.056;9.466;2023-02-12T16:03:54;11.83;;;7.43;;
12972;SDS011;6551;51.056;9.466;2023-02-12T16:06:24;12.63;;;9.00;;
12972;SDS011;6551;51.056;9.466;2023-02-12T16:08:57;11.97;;;6.50;;
12972;SDS011;6551;51.056;9.466;2023-02-12T16:11:27;9.37;;;5.90;;
12972;SDS011;6551;51.056;9.466;2023-02-12T16:13:55;7.70;;;5.97;;
12972;SDS011;6551;51.056;9.466;2023-02-12T16:16:27;8.63;;;6.50;;
12972;SDS011;6551;51.056;9.466;2023-02-12T16:22:11;9.27;;;6.33;;
12972;SDS011;6551;51.056;9.466;2023-02-12T16:24:44;8.87;;;6.43;;
12972;SDS011;6551;51.056;9.466;2023-02-12T16:29:49;8.30;;;5.70;;
12972;SDS011;6551;51.056;9.466;2023-02-12T16:50:37;9.13;;;5.60;;
12972;SDS011;6551;51.056;9.466;2023-02-12T16:55:54;7.40;;;4.70;;
12972;SDS011;6551;51.056;9.466;2023-02-12T16:58:23;8.00;;;5.17;;
12972;SDS011;6551;51.056;9.466;2023-02-12T17:00:52;7.67;;;4.90;;
12972;SDS011;6551;51.056;9.466;2023-02-12T17:03:21;6.80;;;4.57;;
12972;SDS011;6551;51.056;9.466;2023-02-12T17:05:48;8.87;;;6.93;;
12972;SDS011;6551;51.056;9.466;2023-02-12T17:08:21;11.80;;;7.47;;
12972;SDS011;6551;51.056;9.466;2023-02-12T17:10:49;11.53;;;6.90;;
12972;SDS011;6551;51.056;9.466;2023-02-12T17:13:15;11.03;;;7.37;;
12972;SDS011;6551;51.056;9.466;2023-02-12T17:15:54;9.03;;;5.70;;
12972;SDS011;6551;51.056;9.466;2023-02-12T17:18:25;10.27;;;5.67;;
12972;SDS011;6551;51.056;9.466;2023-02-12T17:20:57;12.70;;;6.53;;
12972;SDS011;6551;51.056;9.466;2023-02-12T17:23:27;9.83;;;5.97;;
12972;SDS011;6551;51.056;9.466;2023-02-12T17:25:55;6.87;;;4.83;;
12972;SDS011;6551;51.056;9.466;2023-02-12T17:28:21;6.30;;;4.63;;
12972;SDS011;6551;51.056;9.466;2023-02-12T17:30:49;6.80;;;4.50;;
12972;SDS011;6551;51.056;9.466;2023-02-12T17:33:16;7.63;;;4.70;;
12972;SDS011;6551;51.056;9.466;2023-02-12T17:35:44;6.37;;;4.47;;
12972;SDS011;6551;51.056;9.466;2023-02-12T17:38:10;7.90;;;4.90;;
12972;SDS011;6551;51.056;9.466;2023-02-12T17:40:36;8.10;;;5.00;;
12972;SDS011;6551;51.056;9.466;2023-02-12T17:43:04;9.30;;;5.30;;
12972;SDS011;6551;51.056;9.466;2023-02-12T17:45:30;10.07;;;6.07;;
12972;SDS011;6551;51.056;9.466;2023-02-12T17:47:57;7.90;;;6.03;;
12972;SDS011;6551;51.056;9.466;2023-02-12T17:50:23;11.27;;;7.17;;
12972;SDS011;6551;51.056;9.466;2023-02-12T17:52:49;10.73;;;7.30;;
12972;SDS011;6551;51.056;9.466;2023-02-12T17:55:16;13.93;;;8.63;;
12972;SDS011;6551;51.056;9.466;2023-02-12T17:57:42;12.30;;;7.63;;
12972;SDS011;6551;51.056;9.466;2023-02-12T18:00:09;10.67;;;7.73;;
12972;SDS011;6551;51.056;9.466;2023-02-12T18:02:37;14.00;;;8.47;;
12972;SDS011;6551;51.056;9.466;2023-02-12T18:05:04;11.63;;;7.67;;
12972;SDS011;6551;51.056;9.466;2023-02-12T18:07:32;12.77;;;8.07;;
12972;SDS011;6551;51.056;9.466;2023-02-12T18:09:59;3.00;;;2.10;;
12972;SDS011;6551;51.056;9.466;2023-02-12T18:12:25;3.07;;;2.17;;
12972;SDS011;6551;51.056;9.466;2023-02-12T18:14:56;2.73;;;2.10;;
12972;SDS011;6551;51.056;9.466;2023-02-12T18:17:23;3.17;;;2.10;;
12972;SDS011;6551;51.056;9.466;2023-02-12T18:19:51;3.53;;;2.40;;
12972;SDS011;6551;51.056;9.466;2023-02-12T18:22:17;3.47;;;2.47;;
12972;SDS011;6551;51.056;9.466;2023-02-12T18:24:43;3.53;;;2.50;;
12972;SDS011;6551;51.056;9.466;2023-02-12T18:27:09;3.43;;;2.30;;
12972;SDS011;6551;51.056;9.466;2023-02-12T18:29:38;3.93;;;2.90;;
12972;SDS011;6551;51.056;9.466;2023-02-12T18:32:05;3.10;;;2.47;;
12972;SDS011;6551;51.056;9.466;2023-02-12T18:34:33;3.83;;;2.67;;
12972;SDS011;6551;51.056;9.466;2023-02-12T18:36:59;6.73;;;3.37;;
12972;SDS011;6551;51.056;9.466;2023-02-12T18:39:27;4.67;;;3.40;;